Time;durP1;ratioP1;P1;durP2;ratioP2;P2;SDS_P1;SDS_P2;PMS_P1;PMS_P2;Temp;Humidity;BMP_temperature;BMP_pressure;BME280_temperature;BME280_humidity;BME280_pressure;Samples;Min_cycle;Max_cycle;Signal;HPM_P1;HPM_P2
2021/12/04 00:00:00;;;;;;;52.15;32.25;;;;;;;;;;5069626;28;20551;-68
2021/12/04 00:02:26;;;;;;;49.65;32.22;;;4.40;99.90;;;;;;5069677;28;20036;-68
2021/12/04 00:04:54;;;;;;;46.88;31.90;;;5.20;99.90;;;;;;5070744;28;20048;-68
2021/12/04 00:07:22;;;;;;;46.60;31.63;;;4.20;99.90;;;;;;5070982;28;20044;-68
2021/12/04 00:09:50;;;;;;;51.92;33.88;;;4.80;99.90;;;;;;5070862;28;20044;-68
2021/12/04 00:12:19;;;;;;;54.80;34.25;;;4.70;99.90;;;;;;5070851;28;20526;-68
2021/12/04 00:14:45;;;;;;;52.85;32.83;;;4.80;99.90;;;;;;5069746;28;20052;-68
2021/12/04 00:17:11;;;;;;;53.00;33.83;;;4.40;99.90;;;;;;5070653;28;20032;-68
2021/12/04 00:19:38;;;;;;;52.35;32.97;;;4.20;99.90;;;;;;5069386;28;20481;-68
2021/12/04 00:22:04;;;;;;;57.65;34.22;;;4.40;99.90;;;;;;5069262;28;20033;-68
2021/12/04 00:24:31;;;;;;;50.20;32.75;;;4.40;99.90;;;;;;5069222;28;20076;-68
2021/12/04 00:26:57;;;;;;;53.25;33.47;;;4.10;99.90;;;;;;5052441;28;20134;-68
2021/12/04 00:29:24;;;;;;;57.20;34.30;;;4.70;99.90;;;;;;5070286;28;20036;-68
2021/12/04 00:31:55;;;;;;;54.78;34.85;;;4.10;99.90;;;;;;5069008;28;20123;-68
2021/12/04 00:34:22;;;;;;;59.08;34.78;;;;;;;;;;5070658;28;20060;-68
2021/12/04 00:37:06;;;;;;;56.85;34.95;;;4.30;99.90;;;;;;5069377;28;20508;-68
2021/12/04 00:50:49;;;;;;;51.65;33.60;;;;;;;;;;5035252;28;20112;-68
2021/12/04 00:53:14;;;;;;;50.22;32.15;;;4.50;99.90;;;;;;5035210;28;20110;-68
2021/12/04 00:55:40;;;;;;;48.10;32.10;;;4.40;99.90;;;;;;5052122;28;20037;-68
2021/12/04 00:58:06;;;;;;;45.50;30.45;;;4.30;99.90;;;;;;5018494;28;20140;-68
2021/12/04 01:00:31;;;;;;;40.75;29.90;;;4.40;99.90;;;;;;5051366;28;20495;-68
2021/12/04 01:02:57;;;;;;;43.60;30.05;;;4.20;99.90;;;;;;5051254;28;20044;-68
2021/12/04 01:05:23;;;;;;;43.00;28.50;;;;;;;;;;5034485;28;20053;-68
2021/12/04 01:07:59;;;;;;;36.75;28.17;;;;;;;;;;5051372;28;20082;-68
2021/12/04 01:10:26;;;;;;;40.05;28.63;;;4.20;99.90;;;;;;5034513;28;20116;-68
2021/12/04 01:12:52;;;;;;;37.08;28.05;;;4.30;99.90;;;;;;5051287;28;20114;-68
2021/12/04 01:15:22;;;;;;;42.25;28.98;;;;;;;;;;5051653;28;20512;-68
2021/12/04 01:17:47;;;;;;;35.40;26.40;;;4.40;99.90;;;;;;5051740;28;20447;-68
2021/12/04 01:20:13;;;;;;;33.20;25.70;;;5.10;99.90;;;;;;5051801;28;20037;-68
2021/12/04 01:22:39;;;;;;;31.55;24.95;;;4.70;99.90;;;;;;5034852;28;20049;-68
2021/12/04 01:25:05;;;;;;;32.80;25.55;;;5.10;99.90;;;;;;5064951;28;20064;-68
2021/12/04 01:27:31;;;;;;;31.90;24.73;;;4.70;99.90;;;;;;5073651;28;20090;-68
2021/12/04 01:29:57;;;;;;;31.00;23.60;;;4.60;99.90;;;;;;5073671;28;20116;-68
2021/12/04 01:32:26;;;;;;;33.40;24.17;;;4.40;99.90;;;;;;5072369;28;20124;-68
2021/12/04 01:34:54;;;;;;;31.52;24.35;;;;;;;;;;5073620;28;20131;-68
2021/12/04 01:37:20;;;;;;;30.48;23.58;;;4.40;99.90;;;;;;5073770;28;20435;-68
2021/12/04 01:39:46;;;;;;;29.58;23.00;;;4.90;99.90;;;;;;5073661;28;20036;-68
2021/12/04 01:42:13;;;;;;;26.95;22.50;;;;;;;;;;5073303;28;20069;-68
2021/12/04 01:44:39;;;;;;;26.98;21.55;;;4.50;99.90;;;;;;5073215;28;20373;-68
2021/12/04 01:47:12;;;;;;;25.50;21.30;;;4.80;99.90;;;;;;5073170;28;20075;-69
2021/12/04 01:49:38;;;;;;;23.15;19.80;;;;;;;;;;5073157;28;20059;-68
2021/12/04 01:52:08;;;;;;;23.13;19.60;;;4.70;99.90;;;;;;5073218;28;20052;-68
2021/12/04 01:54:35;;;;;;;22.75;19.33;;;4.50;99.90;;;;;;5055507;28;20050;-68
2021/12/04 01:57:03;;;;;;;26.08;20.20;;;4.50;99.90;;;;;;5073382;28;20078;-68
2021/12/04 01:59:31;;;;;;;22.98;19.60;;;4.20;99.90;;;;;;5073018;28;20040;-68
2021/12/04 02:01:58;;;;;;;22.95;19.70;;;;;;;;;;5073434;28;20071;-68
2021/12/04 02:04:24;;;;;;;27.30;20.60;;;4.50;99.90;;;;;;5071812;28;20087;-68
2021/12/04 02:06:50;;;;;;;24.33;20.08;;;4.70;99.90;;;;;;5072787;28;20623;-68
2021/12/04 02:09:16;;;;;;;23.42;19.52;;;4.50;99.90;;;;;;5072813;28;20498;-68
2021/12/04 02:11:41;;;;;;;21.20;18.23;;;4.20;99.90;;;;;;5071811;28;20151;-68
2021/12/04 02:14:08;;;;;;;20.52;17.98;;;4.60;99.90;;;;;;5072761;28;20048;-68
2021/12/04 02:16:36;;;;;;;22.60;18.42;;;4.30;99.90;;;;;;5072699;28;20036;-68
2021/12/04 02:19:02;;;;;;;21.80;18.02;;;;;;;;;;5071341;28;20496;-68
2021/12/04 02:21:28;;;;;;;17.75;15.82;;;4.80;99.90;;;;;;5072628;28;20052;-68
2021/12/04 02:23:54;;;;;;;18.77;16.73;;;4.40;99.90;;;;;;5072653;28;20098;-68
2021/12/04 02:26:22;;;;;;;18.98;16.90;;;4.50;99.90;;;;;;5072549;28;20100;-67
2021/12/04 02:28:48;;;;;;;20.35;17.80;;;4.80;99.90;;;;;;5071297;28;20040;-68
2021/12/04 02:31:16;;;;;;;19.77;17.70;;;4.40;99.90;;;;;;5072402;28;20059;-68
2021/12/04 02:33:41;;;;;;;19.33;17.33;;;4.70;99.90;;;;;;5072158;28;20052;-68
2021/12/04 02:36:07;;;;;;;19.75;17.65;;;4.30;99.90;;;;;;5071268;28;20044;-68
2021/12/04 02:38:34;;;;;;;19.98;17.85;;;4.80;99.90;;;;;;5070920;28;20048;-68
2021/12/04 02:41:01;;;;;;;19.20;17.15;;;4.20;99.90;;;;;;5071832;28;20067;-68
2021/12/04 02:43:32;;;;;;;22.02;18.90;;;4.50;99.90;;;;;;5072194;28;20107;-68
2021/12/04 02:45:57;;;;;;;20.25;17.30;;;4.60;99.90;;;;;;5072278;28;20041;-68
2021/12/04 02:48:23;;;;;;;18.10;16.20;;;4.60;99.90;;;;;;5072349;28;20817;-68
2021/12/04 02:50:50;;;;;;;17.80;15.80;;;4.60;99.90;;;;;;5072075;28;20138;-68
2021/12/04 02:53:15;;;;;;;18.05;16.20;;;4.00;99.90;;;;;;5070604;28;20044;-68
2021/12/04 02:55:43;;;;;;;19.45;16.75;;;4.40;99.90;;;;;;5071908;28;20040;-68
2021/12/04 02:58:10;;;;;;;17.67;15.85;;;4.20;99.90;;;;;;5071966;28;20397;-73
2021/12/04 03:00:45;;;;;;;16.60;14.85;;;4.60;99.90;;;;;;5070548;28;20056;-73
2021/12/04 03:03:11;;;;;;;16.73;14.95;;;;;;;;;;5053124;28;20056;-74
2021/12/04 03:05:38;;;;;;;19.02;16.20;;;;;;;;;;5072019;28;20058;-73
2021/12/04 03:08:06;;;;;;;16.85;15.10;;;4.50;99.90;;;;;;5070600;28;20046;-73
2021/12/04 03:10:36;;;;;;;17.25;15.27;;;;;;;;;;5070895;28;20084;-73
2021/12/04 03:13:04;;;;;;;19.95;14.88;;;4.40;99.90;;;;;;5053903;28;20040;-74
2021/12/04 03:15:32;;;;;;;17.75;14.82;;;4.60;99.90;;;;;;5071733;28;20044;-74
2021/12/04 03:17:58;;;;;;;16.52;14.82;;;;;;;;;;5071520;28;20047;-74
2021/12/04 03:20:27;;;;;;;17.90;16.00;;;4.40;99.90;;;;;;5070170;28;20047;-68
2021/12/04 03:22:59;;;;;;;17.42;15.63;;;4.10;99.90;;;;;;5069990;28;20419;-68
2021/12/04 03:25:25;;;;;;;18.60;15.90;;;;;;;;;;5071477;28;20044;-68
2021/12/04 03:27:51;;;;;;;18.73;16.48;;;4.40;99.90;;;;;;5071420;28;20036;-68
2021/12/04 03:30:32;;;;;;;17.42;15.52;;;4.50;99.90;;;;;;5071495;28;20055;-68
2021/12/04 03:41:06;;;;;;;17.40;15.50;;;4.50;99.90;;;;;;5047927;28;20072;-68
2021/12/04 03:43:32;;;;;;;17.45;14.48;;;4.40;99.90;;;;;;5031551;28;20125;-74
2021/12/04 03:46:05;;;;;;;16.00;14.30;;;4.30;99.90;;;;;;5031622;28;20056;-74
2021/12/04 03:50:59;;;;;;;17.77;15.88;;;4.40;99.90;;;;;;5048820;28;20053;-73
2021/12/04 03:53:25;;;;;;;15.85;14.02;;;;;;;;;;5048540;28;20128;-73
2021/12/04 03:55:51;;;;;;;16.63;14.93;;;4.40;99.90;;;;;;5048811;28;20095;-73
2021/12/04 03:58:20;;;;;;;15.45;13.85;;;4.90;99.90;;;;;;5032273;28;20045;-74
2021/12/04 04:00:48;;;;;;;16.42;14.50;;;4.40;99.90;;;;;;5048502;28;20045;-73
2021/12/04 04:03:15;;;;;;;16.10;14.40;;;4.20;99.90;;;;;;5031539;28;20080;-74
2021/12/04 04:05:40;;;;;;;15.80;14.20;;;4.30;99.90;;;;;;5048005;28;20044;-73
2021/12/04 04:08:06;;;;;;;16.77;14.95;;;4.60;99.90;;;;;;5031205;28;20461;-74
2021/12/04 04:10:33;;;;;;;16.02;14.32;;;;;;;;;;5031327;28;20516;-74
2021/12/04 04:12:59;;;;;;;17.10;15.30;;;;;;;;;;5030930;28;20099;-73
2021/12/04 04:15:27;;;;;;;16.23;14.52;;;4.20;99.90;;;;;;5047785;28;20037;-73
2021/12/04 04:17:53;;;;;;;16.70;14.90;;;;;;;;;;5046263;28;20056;-73
2021/12/04 04:20:21;;;;;;;16.80;14.98;;;4.50;99.90;;;;;;5070482;28;20050;-73
2021/12/04 04:22:48;;;;;;;16.20;14.02;;;4.20;99.90;;;;;;5070689;28;20098;-74
2021/12/04 04:25:18;;;;;;;17.25;14.70;;;4.30;99.90;;;;;;5070462;28;20132;-73
2021/12/04 04:27:44;;;;;;;16.60;14.77;;;4.60;99.90;;;;;;5069003;28;20055;-73
2021/12/04 04:30:14;;;;;;;17.83;14.43;;;4.60;99.90;;;;;;5070388;28;20063;-73
2021/12/04 04:32:44;;;;;;;18.45;15.38;;;4.60;99.90;;;;;;5070698;28;20448;-74
2021/12/04 04:35:16;;;;;;;16.75;14.95;;;4.50;99.90;;;;;;5069192;28;20170;-73
2021/12/04 04:37:51;;;;;;;18.45;15.77;;;4.40;99.90;;;;;;5069059;28;20083;-73
2021/12/04 04:59:45;;;;;;;20.55;16.60;;;4.30;99.90;;;;;;5070731;28;20083;-73
2021/12/04 05:10:23;;;;;;;19.83;17.25;;;;;;;;;;5069135;28;20117;-73
2021/12/04 05:12:55;;;;;;;17.48;15.07;;;;;;;;;;5070115;28;20052;-74
2021/12/04 05:15:43;;;;;;;17.77;15.13;;;4.20;99.90;;;;;;5068863;28;20099;-74
2021/12/04 05:18:21;;;;;;;16.92;15.13;;;4.40;99.90;;;;;;5068821;28;20076;-73
2021/12/04 05:21:03;;;;;;;18.20;16.15;;;;;;;;;;5069998;28;20118;-74
2021/12/04 05:23:34;;;;;;;19.33;15.40;;;4.40;99.90;;;;;;5068645;28;20043;-74
2021/12/04 05:26:03;;;;;;;17.70;15.55;;;4.40;99.90;;;;;;5071045;28;20048;-74
2021/12/04 05:28:29;;;;;;;16.33;14.63;;;4.40;99.90;;;;;;5073740;28;20107;-74
2021/12/04 05:30:56;;;;;;;17.45;14.95;;;4.40;99.90;;;;;;5072468;28;20045;-74
2021/12/04 05:33:22;;;;;;;17.05;14.77;;;4.60;99.90;;;;;;5073503;28;20098;-74
2021/12/04 05:35:48;;;;;;;16.95;15.18;;;4.40;99.90;;;;;;5071930;28;20059;-74
2021/12/04 05:38:17;;;;;;;17.98;15.07;;;4.60;99.90;;;;;;5073487;28;20085;-74
2021/12/04 05:40:44;;;;;;;17.48;15.40;;;4.10;99.90;;;;;;5073552;28;20051;-73
2021/12/04 05:43:14;;;;;;;20.77;16.52;;;4.30;99.90;;;;;;5071646;28;20127;-74
2021/12/04 05:45:45;;;;;;;19.70;16.48;;;4.50;99.90;;;;;;5072197;28;20084;-74
2021/12/04 05:48:25;;;;;;;21.65;17.33;;;4.30;99.90;;;;;;5072233;28;20048;-74
2021/12/04 05:51:18;;;;;;;20.73;17.65;;;4.40;99.90;;;;;;5073337;28;20492;-74
2021/12/04 05:56:35;;;;;;;21.58;16.98;;;4.40;99.90;;;;;;5034275;28;20143;-74
2021/12/04 05:59:03;;;;;;;23.90;19.17;;;5.20;99.90;;;;;;5050490;28;20461;-68
2021/12/04 06:01:30;;;;;;;23.50;18.30;;;4.30;99.90;;;;;;5050565;28;20115;-68
2021/12/04 06:03:56;;;;;;;22.63;18.65;;;4.60;99.90;;;;;;5050401;28;20049;-68
2021/12/04 06:06:22;;;;;;;23.58;18.23;;;4.40;99.90;;;;;;5033543;28;20052;-68
2021/12/04 06:08:48;;;;;;;29.77;21.25;;;4.50;99.90;;;;;;5050111;28;20053;-68
2021/12/04 06:11:15;;;;;;;25.15;19.45;;;4.40;99.90;;;;;;5050449;28;20050;-68
2021/12/04 06:13:42;;;;;;;24.10;18.55;;;;;;;;;;5050399;28;20052;-68
2021/12/04 06:16:08;;;;;;;28.05;20.05;;;4.10;99.90;;;;;;5033625;28;20053;-68
2021/12/04 06:18:34;;;;;;;29.13;21.02;;;4.50;99.90;;;;;;5050410;28;20128;-68
2021/12/04 06:23:45;;;;;;;27.45;20.48;;;4.50;99.90;;;;;;5033837;28;20060;-68
2021/12/04 06:26:14;;;;;;;36.80;23.27;;;4.20;99.90;;;;;;5033680;28;20053;-68
2021/12/04 06:28:40;;;;;;;38.33;23.17;;;;;;;;;;5049274;28;20059;-68
2021/12/04 06:31:08;;;;;;;40.63;24.27;;;4.60;99.90;;;;;;5050132;28;20049;-68
2021/12/04 06:33:38;;;;;;;42.63;25.10;;;4.60;99.90;;;;;;5061852;28;20056;-68
2021/12/04 06:36:06;;;;;;;34.95;23.13;;;4.20;99.90;;;;;;5071668;28;20067;-68
2021/12/04 06:38:32;;;;;;;42.35;25.00;;;4.60;99.90;;;;;;5071704;28;20132;-68
2021/12/04 06:40:59;;;;;;;31.65;21.27;;;5.10;99.90;;;;;;5070806;28;20123;-68
2021/12/04 06:43:26;;;;;;;42.28;25.60;;;4.60;99.90;;;;;;5072665;28;20110;-68
2021/12/04 06:45:58;;;;;;;37.28;23.45;;;4.20;99.90;;;;;;5072891;28;20044;-68
2021/12/04 06:48:30;;;;;;;44.42;25.30;;;4.20;99.90;;;;;;5072460;28;20033;-68
2021/12/04 06:51:05;;;;;;;39.05;24.10;;;4.40;99.90;;;;;;5071299;28;20045;-68
2021/12/04 06:56:16;;;;;;;39.88;24.85;;;;;;;;;;5072484;28;20052;-68
2021/12/04 06:58:42;;;;;;;40.67;25.60;;;4.40;99.90;;;;;;5072208;28;20118;-68
2021/12/04 07:01:12;;;;;;;53.50;28.45;;;4.40;99.90;;;;;;5070628;28;20048;-68
2021/12/04 07:03:39;;;;;;;42.80;25.52;;;4.40;99.90;;;;;;5070466;28;20484;-68
2021/12/04 07:06:05;;;;;;;42.78;26.25;;;;;;;;;;5071975;28;20778;-68
2021/12/04 07:08:34;;;;;;;53.58;27.13;;;4.10;99.90;;;;;;5071716;28;20378;-68
2021/12/04 07:11:04;;;;;;;34.63;23.33;;;4.20;99.90;;;;;;5071558;28;20052;-68
2021/12/04 07:13:30;;;;;;;43.38;26.17;;;4.10;99.90;;;;;;5070110;28;20058;-68
2021/12/04 07:16:04;;;;;;;43.65;25.52;;;4.20;99.90;;;;;;5071054;28;20058;-68
2021/12/04 07:18:31;;;;;;;51.75;28.58;;;4.50;99.90;;;;;;5071621;28;20143;-68
2021/12/04 07:20:57;;;;;;;42.90;25.40;;;4.70;99.90;;;;;;5071170;28;20044;-68
2021/12/04 07:23:23;;;;;;;40.92;25.83;;;4.30;99.90;;;;;;5070322;28;20131;-68
2021/12/04 07:25:48;;;;;;;54.35;27.92;;;4.30;99.90;;;;;;5071628;28;20472;-68
2021/12/04 07:28:14;;;;;;;44.53;25.60;;;4.30;99.90;;;;;;5071496;28;20043;-68
2021/12/04 07:30:40;;;;;;;40.88;25.02;;;;;;;;;;5069963;28;20051;-68
2021/12/04 07:33:06;;;;;;;43.08;24.50;;;4.30;99.90;;;;;;5070565;28;20492;-68
2021/12/04 07:35:32;;;;;;;45.53;25.67;;;4.60;99.90;;;;;;5070225;28;20048;-68
2021/12/04 07:38:00;;;;;;;40.42;24.65;;;4.50;99.90;;;;;;5070119;28;20059;-68
2021/12/04 07:40:26;;;;;;;49.63;27.20;;;;;;;;;;5070742;28;20053;-68
2021/12/04 07:42:52;;;;;;;43.15;25.52;;;;;;;;;;5069571;28;20071;-68
2021/12/04 07:45:18;;;;;;;54.83;27.10;;;4.60;99.90;;;;;;5069674;28;20048;-68
2021/12/04 07:47:53;;;;;;;61.20;28.55;;;4.10;99.90;;;;;;5070973;28;20042;-68
2021/12/04 07:50:19;;;;;;;48.85;25.55;;;;;;;;;;5053315;28;20560;-68
2021/12/04 07:52:45;;;;;;;59.67;27.65;;;;;;;;;;5070652;28;20072;-68
2021/12/04 07:55:11;;;;;;;60.40;27.58;;;4.40;99.90;;;;;;5070756;28;20068;-68
2021/12/04 07:57:37;;;;;;;68.05;29.05;;;4.30;99.90;;;;;;5070703;28;20067;-68
2021/12/04 08:00:07;;;;;;;61.13;27.88;;;4.50;99.90;;;;;;5070640;28;20391;-68
2021/12/04 08:02:33;;;;;;;57.60;27.85;;;;;;;;;;5069019;28;20072;-68
2021/12/04 08:04:59;;;;;;;60.72;28.52;;;4.40;99.90;;;;;;5069007;28;20052;-68
2021/12/04 08:07:25;;;;;;;79.93;31.08;;;;;;;;;;5069069;28;20047;-68
2021/12/04 08:09:50;;;;;;;69.82;30.08;;;4.90;99.90;;;;;;5069351;28;20060;-68
2021/12/04 08:12:16;;;;;;;74.28;30.80;;;4.00;99.90;;;;;;5070315;28;20040;-68
2021/12/04 08:14:42;;;;;;;86.03;32.25;;;;;;;;;;5070636;28;20082;-68
2021/12/04 08:17:08;;;;;;;65.85;30.00;;;;;;;;;;5069091;28;20040;-68
2021/12/04 08:19:34;;;;;;;85.00;32.15;;;4.20;99.90;;;;;;5070626;28;20533;-68
2021/12/04 08:22:00;;;;;;;82.75;31.63;;;;;;;;;;5059512;28;20110;-67
2021/12/04 08:24:26;;;;;;;62.78;28.02;;;4.60;99.90;;;;;;5048836;28;20504;-68
2021/12/04 08:26:52;;;;;;;84.85;31.52;;;;;;;;;;5068378;28;20067;-68
2021/12/04 08:29:18;;;;;;;65.40;28.50;;;4.80;99.90;;;;;;5056298;28;20071;-68
2021/12/04 08:31:46;;;;;;;79.40;31.38;;;4.60;99.90;;;;;;5069624;28;20103;-68
2021/12/04 08:34:12;;;;;;;62.65;28.05;;;4.80;99.90;;;;;;5068235;28;20071;-68
2021/12/04 08:36:38;;;;;;;75.10;30.48;;;4.60;99.90;;;;;;5069221;28;20048;-68
2021/12/04 08:39:05;;;;;;;71.35;29.83;;;4.70;99.90;;;;;;5068219;28;20052;-68
2021/12/04 08:41:32;;;;;;;63.67;28.17;;;4.90;99.90;;;;;;5069234;28;20071;-65
2021/12/04 08:43:58;;;;;;;77.68;30.48;;;5.40;99.90;;;;;;5069263;28;20110;-68
2021/12/04 08:46:25;;;;;;;70.22;29.77;;;4.70;99.90;;;;;;5068107;28;20049;-66
2021/12/04 08:48:56;;;;;;;70.53;30.00;;;4.50;99.90;;;;;;5069005;28;20049;-66
2021/12/04 08:51:23;;;;;;;76.43;29.95;;;4.90;99.90;;;;;;5069790;28;20056;-66
2021/12/04 08:53:51;;;;;;;79.28;31.25;;;4.50;99.90;;;;;;5069226;28;20066;-67
2021/12/04 08:56:17;;;;;;;87.82;32.97;;;4.80;99.90;;;;;;5068248;28;20052;-66
2021/12/04 08:58:43;;;;;;;91.03;33.30;;;5.10;99.90;;;;;;5068969;28;20082;-69
2021/12/04 09:01:16;;;;;;;74.20;31.35;;;5.10;99.90;;;;;;5071296;28;20130;-69
2021/12/04 09:03:45;;;;;;;77.45;30.60;;;5.10;99.90;;;;;;5073053;28;20064;-69
2021/12/04 09:06:13;;;;;;;78.38;31.23;;;4.80;99.90;;;;;;5071571;28;20114;-69
2021/12/04 09:08:39;;;;;;;72.40;30.60;;;5.00;99.90;;;;;;5073172;28;20128;-69
2021/12/04 09:11:12;;;;;;;79.57;31.40;;;4.80;99.90;;;;;;5073607;28;20047;-69
2021/12/04 09:13:38;;;;;;;80.05;32.78;;;4.70;99.90;;;;;;5072991;28;20055;-68
2021/12/04 09:16:05;;;;;;;82.53;32.55;;;4.70;99.90;;;;;;5073215;28;20127;-73
2021/12/04 09:18:31;;;;;;;109.53;35.78;;;;;;;;;;5072929;28;20039;-74
2021/12/04 09:20:57;;;;;;;101.65;34.53;;;5.40;99.90;;;;;;5072281;28;20436;-74
2021/12/04 09:23:30;;;;;;;106.35;36.03;;;4.50;99.90;;;;;;5072233;28;20052;-74
2021/12/04 09:26:00;;;;;;;88.50;33.95;;;4.70;99.90;;;;;;5072675;28;20124;-74
2021/12/04 09:28:33;;;;;;;119.70;37.97;;;5.40;99.90;;;;;;5073229;28;20076;-72
2021/12/04 09:31:18;;;;;;;110.53;35.78;;;4.60;99.90;;;;;;5071274;28;20132;-75
2021/12/04 09:34:13;;;;;;;89.70;33.30;;;5.10;99.90;;;;;;5071499;28;20114;-72
2021/12/04 10:14:51;;;;;;;83.03;31.75;;;4.80;99.90;;;;;;5071163;28;20048;-70
2021/12/04 10:17:42;;;;;;;74.07;30.10;;;4.80;99.90;;;;;;5070603;28;20135;-70
2021/12/04 10:20:17;;;;;;;83.32;31.77;;;5.20;99.90;;;;;;5072550;28;20400;-73
2021/12/04 10:33:47;;;;;;;74.07;33.03;;;4.80;99.90;;;;;;5070437;28;20132;-71
2021/12/04 10:36:24;;;;;;;77.00;32.63;;;4.80;99.90;;;;;;5070106;28;20123;-70
2021/12/04 10:38:54;;;;;;;68.88;31.20;;;5.10;99.90;;;;;;5070457;28;20083;-71
2021/12/04 10:41:33;;;;;;;76.70;32.65;;;4.50;99.90;;;;;;5071509;28;20055;-70
2021/12/04 10:44:24;;;;;;;72.85;32.17;;;5.60;99.90;;;;;;5070067;28;20083;-71
2021/12/04 10:47:00;;;;;;;84.00;34.67;;;5.30;99.90;;;;;;5052862;28;20059;-73
2021/12/04 10:52:27;;;;;;;68.50;31.98;;;5.30;99.90;;;;;;5070307;28;20060;-70
2021/12/04 10:55:11;;;;;;;65.68;31.00;;;5.20;99.90;;;;;;5069742;28;20079;-70
2021/12/04 11:00:40;;;;;;;55.72;29.25;;;5.30;99.90;;;;;;5070773;28;20052;-73
2021/12/04 11:03:30;;;;;;;54.88;28.50;;;5.10;99.90;;;;;;5069742;28;20056;-72
2021/12/04 11:37:33;;;;;;;93.25;38.33;;;;;;;;;;5068740;28;20052;-72
2021/12/04 11:42:46;;;;;;;96.15;40.05;;;;;;;;;;5068565;28;20060;-72
2021/12/04 11:45:22;;;;;;;93.07;40.28;;;5.40;99.90;;;;;;5068961;28;20079;-73
2021/12/04 11:48:06;;;;;;;96.70;42.80;;;5.40;99.90;;;;;;5070959;28;20048;-72
2021/12/04 11:50:34;;;;;;;99.15;41.72;;;5.20;99.90;;;;;;5068781;28;20497;-72
2021/12/04 11:53:04;;;;;;;115.85;44.80;;;5.10;99.90;;;;;;5069124;28;20075;-72
2021/12/04 11:55:34;;;;;;;126.72;46.03;;;5.40;99.90;;;;;;5070145;28;20043;-73
2021/12/04 11:58:01;;;;;;;137.93;47.95;;;;;;;;;;5069210;28;20078;-71
2021/12/04 12:00:34;;;;;;;131.05;47.92;;;5.10;99.90;;;;;;5070010;28;20559;-72
2021/12/04 12:03:14;;;;;;;135.57;48.40;;;5.30;99.90;;;;;;5068658;28;20044;-73
2021/12/04 12:05:52;;;;;;;125.20;47.80;;;5.20;99.90;;;;;;5067660;28;20405;-70
2021/12/04 12:08:38;;;;;;;130.23;48.17;;;5.20;99.90;;;;;;5050232;28;20060;-73
2021/12/04 12:11:18;;;;;;;136.07;48.33;;;5.30;99.90;;;;;;5048576;28;20059;-67
2021/12/04 12:13:48;;;;;;;124.18;47.35;;;5.40;99.90;;;;;;5049773;28;20048;-67
2021/12/04 12:16:21;;;;;;;109.18;43.15;;;5.30;99.90;;;;;;5048257;28;20060;-67
2021/12/04 12:18:53;;;;;;;118.55;42.75;;;5.40;99.90;;;;;;5049880;28;20392;-68
2021/12/04 12:21:25;;;;;;;84.30;38.50;;;5.40;99.90;;;;;;5049538;28;20140;-67
2021/12/04 12:26:59;;;;;;;93.00;38.92;;;5.30;99.90;;;;;;5051556;28;20052;-68
2021/12/04 12:36:04;;;;;;;95.28;40.83;;;5.60;99.90;;;;;;5012791;28;20049;-68
2021/12/04 12:38:41;;;;;;;96.03;40.35;;;5.40;99.90;;;;;;4991713;28;20047;-68
2021/12/04 12:41:27;;;;;;;92.90;39.72;;;5.60;99.90;;;;;;4975495;28;20054;-68
2021/12/04 12:44:00;;;;;;;80.93;38.90;;;5.10;99.90;;;;;;4991998;28;20114;-68
2021/12/04 12:46:35;;;;;;;82.43;38.00;;;5.40;99.90;;;;;;4992736;28;20100;-68
2021/12/04 12:49:02;;;;;;;81.97;38.13;;;5.40;99.90;;;;;;4992768;28;20121;-68
2021/12/04 12:51:35;;;;;;;85.53;39.10;;;5.50;99.90;;;;;;4976010;28;20116;-68
2021/12/04 12:54:05;;;;;;;89.68;40.45;;;5.90;99.90;;;;;;4976133;28;20117;-68
2021/12/04 12:56:35;;;;;;;92.30;40.67;;;5.50;99.90;;;;;;4992537;28;20042;-68
2021/12/04 12:59:06;;;;;;;91.72;41.28;;;5.30;99.90;;;;;;4992744;28;20081;-68
2021/12/04 13:12:56;;;;;;;112.05;43.28;;;;;;;;;;5052747;28;20056;-68
2021/12/04 13:15:32;;;;;;;113.28;43.17;;;5.20;99.90;;;;;;5053864;28;20055;-68
2021/12/04 13:18:20;;;;;;;113.68;43.00;;;5.40;99.90;;;;;;5052632;28;20052;-73
2021/12/04 13:20:47;;;;;;;102.43;41.90;;;5.20;99.90;;;;;;5053927;28;20049;-74
2021/12/04 13:23:15;;;;;;;135.27;44.95;;;5.30;99.90;;;;;;5053917;28;20060;-74
2021/12/04 13:25:57;;;;;;;112.88;41.65;;;5.40;99.90;;;;;;5053738;28;20053;-73
2021/12/04 13:28:26;;;;;;;125.57;44.50;;;5.50;99.90;;;;;;5052473;28;20091;-74
2021/12/04 13:30:52;;;;;;;132.43;45.00;;;5.10;99.90;;;;;;5053728;28;20486;-74
2021/12/04 13:33:18;;;;;;;108.53;42.05;;;;;;;;;;5053652;28;20040;-74
2021/12/04 13:35:46;;;;;;;105.00;39.88;;;5.10;99.90;;;;;;5053638;28;20048;-74
2021/12/04 13:38:14;;;;;;;107.07;40.90;;;5.20;99.90;;;;;;5053301;28;20445;-74
2021/12/04 13:40:42;;;;;;;101.72;39.65;;;5.20;99.90;;;;;;5051980;28;20049;-74
2021/12/04 13:43:13;;;;;;;101.45;40.38;;;5.30;99.90;;;;;;5051843;28;20080;-73
2021/12/04 13:45:40;;;;;;;109.72;40.75;;;5.10;99.90;;;;;;5052828;28;20073;-73
2021/12/04 13:48:07;;;;;;;101.68;40.38;;;;;;;;;;5053254;28;20397;-73
2021/12/04 13:53:26;;;;;;;99.18;39.17;;;5.30;99.90;;;;;;5052341;28;20099;-72
2021/12/04 13:55:59;;;;;;;146.75;44.47;;;5.30;99.90;;;;;;5052273;28;20091;-72
2021/12/04 13:58:26;;;;;;;143.88;43.33;;;5.40;99.90;;;;;;5053591;28;20089;-73
2021/12/04 14:00:53;;;;;;;102.00;41.90;;;5.30;99.90;;;;;;5053439;28;20100;-73
2021/12/04 14:03:26;;;;;;;109.43;41.58;;;5.50;99.90;;;;;;5053129;28;20048;-72
2021/12/04 14:05:53;;;;;;;96.60;40.88;;;5.50;99.90;;;;;;5053151;28;20501;-73
2021/12/04 14:08:19;;;;;;;95.30;39.90;;;5.50;99.90;;;;;;5051915;28;20057;-72
2021/12/04 14:10:48;;;;;;;104.43;42.20;;;5.30;99.90;;;;;;5051679;28;20053;-72
2021/12/04 14:13:17;;;;;;;105.90;42.90;;;5.20;99.90;;;;;;5053494;28;20040;-72
2021/12/04 14:15:45;;;;;;;112.95;42.22;;;5.50;99.90;;;;;;5056242;28;20129;-72
2021/12/04 14:18:16;;;;;;;101.40;41.20;;;5.50;99.90;;;;;;5072195;28;20087;-71
2021/12/04 14:20:46;;;;;;;105.80;41.33;;;5.70;99.90;;;;;;5071263;28;20079;-74
2021/12/04 14:23:12;;;;;;;102.57;41.97;;;5.40;99.90;;;;;;5072989;28;20045;-81
2021/12/04 14:25:43;;;;;;;103.75;41.92;;;5.20;99.90;;;;;;5070951;28;20033;-72
2021/12/04 14:28:11;;;;;;;99.05;42.42;;;5.30;99.90;;;;;;5071086;28;20044;-73
2021/12/04 14:30:38;;;;;;;99.95;41.80;;;5.50;99.90;;;;;;5071311;28;20381;-73
2021/12/04 14:33:07;;;;;;;116.03;42.33;;;5.40;99.90;;;;;;5072240;28;20032;-72
2021/12/04 14:35:38;;;;;;;113.95;42.30;;;5.40;99.90;;;;;;5072600;28;20063;-72
2021/12/04 14:38:08;;;;;;;113.32;42.15;;;5.30;99.90;;;;;;5072513;28;20040;-72
2021/12/04 14:40:36;;;;;;;111.72;43.08;;;5.20;99.90;;;;;;5072333;28;20545;-72
2021/12/04 14:43:04;;;;;;;112.25;42.38;;;5.30;99.90;;;;;;5063394;28;20142;-72
2021/12/04 14:45:33;;;;;;;91.90;40.72;;;5.30;99.90;;;;;;5069798;28;20093;-72
2021/12/04 14:48:07;;;;;;;99.93;43.00;;;5.30;99.90;;;;;;5071959;28;20037;-68
2021/12/04 14:50:36;;;;;;;117.50;44.10;;;5.50;99.90;;;;;;5071657;28;20051;-68
2021/12/04 14:53:06;;;;;;;89.32;41.13;;;5.60;99.90;;;;;;5072157;28;20659;-68
2021/12/04 14:55:41;;;;;;;102.15;43.40;;;5.50;99.90;;;;;;5072217;28;20492;-68
2021/12/04 14:58:13;;;;;;;91.20;40.78;;;5.20;99.90;;;;;;5069995;28;20052;-68
2021/12/04 15:01:04;;;;;;;89.53;40.67;;;5.40;99.90;;;;;;5070802;28;20143;-68
2021/12/04 15:03:43;;;;;;;90.13;40.47;;;5.30;99.90;;;;;;5071579;28;20480;-68
2021/12/04 15:06:12;;;;;;;85.53;38.90;;;5.40;99.90;;;;;;5070425;28;20049;-68
2021/12/04 15:08:48;;;;;;;88.55;39.92;;;5.30;99.90;;;;;;5071377;28;20048;-68
2021/12/04 15:11:16;;;;;;;;;;;5.30;99.90;;;;;;5070585;28;20127;-68
2021/12/04 15:13:53;;;;;;;83.72;39.80;;;5.40;99.90;;;;;;5070115;28;19927;-68
2021/12/04 15:16:31;;;;;;;76.22;38.65;;;5.20;99.90;;;;;;5070036;28;20048;-68
2021/12/04 15:19:40;;;;;;;75.50;38.38;;;5.60;99.90;;;;;;5071766;28;20040;-68
2021/12/04 15:22:08;;;;;;;77.55;38.40;;;5.10;99.90;;;;;;5028893;28;20041;-68
2021/12/04 15:24:39;;;;;;;76.15;38.33;;;5.30;99.90;;;;;;5028762;28;20053;-68
2021/12/04 15:27:08;;;;;;;65.05;35.53;;;5.30;99.90;;;;;;5029270;28;20041;-68
2021/12/04 15:29:35;;;;;;;64.88;37.00;;;5.40;99.90;;;;;;5029172;28;20414;-68
2021/12/04 15:32:10;;;;;;;67.55;36.55;;;5.20;99.90;;;;;;5012359;28;20108;-68
2021/12/04 15:34:52;;;;;;;60.17;35.17;;;5.40;99.90;;;;;;5012527;28;20053;-68
2021/12/04 15:37:52;;;;;;;59.63;36.25;;;5.60;99.90;;;;;;5012419;28;20085;-68
2021/12/04 15:40:33;;;;;;;64.28;36.78;;;5.30;99.90;;;;;;5012748;28;20457;-68
2021/12/04 15:43:11;;;;;;;60.95;35.78;;;5.30;99.90;;;;;;5012091;28;20480;-68
2021/12/04 15:45:55;;;;;;;63.80;37.38;;;;;;;;;;5028849;28;20071;-68
2021/12/04 15:53:58;;;;;;;56.70;35.08;;;5.30;99.90;;;;;;5028495;28;20045;-68
2021/12/04 15:56:44;;;;;;;59.33;34.83;;;5.10;99.90;;;;;;5057018;28;20110;-68